createdAt,value
2022-11-17T00:02:03.079Z,94944.81
2022-11-17T00:04:32.253Z,94949.66
2022-11-17T00:07:02.051Z,94940.44
2022-11-17T00:09:31.260Z,94946.38
2022-11-17T00:12:22.315Z,94937.94
2022-11-17T00:14:51.998Z,94942.22
2022-11-17T00:17:20.835Z,94929.50
2022-11-17T00:20:06.729Z,94928.69
2022-11-17T00:22:37.190Z,94924.88
2022-11-17T00:25:06.331Z,94915.72
2022-11-17T00:27:35.786Z,94916.81
2022-11-17T00:30:04.687Z,94926.81
2022-11-17T00:32:51.507Z,94900.38
2022-11-17T00:35:19.906Z,94914.25
2022-11-17T00:38:04.583Z,94911.22
2022-11-17T00:40:33.280Z,94912.53
2022-11-17T00:43:01.708Z,94915.47
2022-11-17T00:45:30.583Z,94915.47
2022-11-17T00:47:59.312Z,94925.72
2022-11-17T00:50:27.710Z,94926.81
2022-11-17T00:52:58.057Z,94925.19
2022-11-17T00:55:27.013Z,94934.41
2022-11-17T00:57:55.569Z,94939.25
2022-11-17T01:00:24.975Z,94940.13
2022-11-17T01:02:53.991Z,94936.38
2022-11-17T01:05:22.402Z,94948.25
2022-11-17T01:07:51.477Z,94923.16
2022-11-17T01:10:21.315Z,94939.38
2022-11-17T01:12:50.622Z,94932.09
2022-11-17T01:15:19.316Z,94933.16
2022-11-17T01:17:48.203Z,94928.34
2022-11-17T01:20:17.239Z,94925.38
2022-11-17T01:22:46.225Z,94913.25
2022-11-17T01:25:15.390Z,94916.44
2022-11-17T01:27:45.454Z,94907.59
2022-11-17T01:30:15.452Z,94917.03
2022-11-17T01:32:43.991Z,94906.22
2022-11-17T01:35:13.072Z,94890.00
2022-11-17T01:37:41.798Z,94909.41
2022-11-17T01:40:14.535Z,94898.31
2022-11-17T01:42:42.971Z,94908.84
2022-11-17T01:45:20.930Z,94905.81
2022-11-17T01:47:51.810Z,94910.41
2022-11-17T01:50:34.946Z,94891.50
2022-11-17T01:53:06.878Z,94905.81
2022-11-17T01:55:39.514Z,94903.13
2022-11-17T01:58:12.124Z,94895.53
2022-11-17T02:00:42.227Z,94900.13
2022-11-17T02:03:11.658Z,94881.75
2022-11-17T02:05:46.525Z,94848.44
2022-11-17T02:08:17.463Z,94877.13
2022-11-17T02:10:51.506Z,94882.50
2022-11-17T02:13:21.920Z,94864.13
2022-11-17T02:15:51.884Z,94865.19
2022-11-17T02:18:21.603Z,94866.53
2022-11-17T02:20:59.447Z,94866.56
2022-11-17T02:24:01.741Z,94854.44
2022-11-17T02:26:46.308Z,94860.91
2022-11-17T02:29:22.666Z,94852.78
2022-11-17T02:31:58.226Z,94847.66
2022-11-17T02:34:35.349Z,94846.31
2022-11-17T02:37:11.233Z,94834.72
2022-11-17T02:39:45.716Z,94837.31
2022-11-17T02:42:44.101Z,94861.66
2022-11-17T02:45:18.272Z,94850.06
2022-11-17T02:47:49.215Z,94843.56
2022-11-17T02:50:26.799Z,94835.22
2022-11-17T02:52:57.244Z,94836.56
2022-11-17T02:55:25.784Z,94833.09
2022-11-17T02:57:55.195Z,94827.22
2022-11-17T03:00:25.477Z,94845.28
2022-11-17T03:03:21.031Z,94836.13
2022-11-17T03:05:59.669Z,94838.28
2022-11-17T03:08:37.533Z,94836.94
2022-11-17T03:11:08.629Z,94840.94
2022-11-17T03:13:47.467Z,94832.31
2022-11-17T03:16:26.781Z,94835.53
2022-11-17T03:19:06.222Z,94834.22
2022-11-17T03:21:39.429Z,94830.69
2022-11-17T03:24:14.539Z,94826.34
2022-11-17T03:26:48.677Z,94821.97
2022-11-17T03:29:21.374Z,94815.28
2022-11-17T03:31:58.137Z,94796.16
2022-11-17T03:34:30.527Z,94797.50
2022-11-17T03:37:04.699Z,94803.50
2022-11-17T03:39:35.407Z,94789.00
2022-11-17T03:42:09.884Z,94795.69
2022-11-17T03:44:43.322Z,94791.38
2022-11-17T03:47:15.568Z,94778.72
2022-11-17T03:49:50.856Z,94759.25
2022-11-17T03:52:20.843Z,94777.63
2022-11-17T03:54:49.511Z,94774.69
2022-11-17T03:57:26.409Z,94765.44
2022-11-17T04:00:01.897Z,94764.88
2022-11-17T04:02:43.575Z,94771.41
2022-11-17T04:05:13.794Z,94764.41
2022-11-17T04:07:44.562Z,94761.47
2022-11-17T04:10:15.310Z,94739.56
2022-11-17T04:13:01.919Z,94759.03
2022-11-17T04:15:47.911Z,94741.00
2022-11-17T04:18:18.059Z,94741.25
2022-11-17T04:20:47.785Z,94741.50
2022-11-17T04:23:17.274Z,94705.25
2022-11-17T04:26:04.684Z,94727.19
2022-11-17T04:28:38.412Z,94732.03
2022-11-17T04:31:10.212Z,94720.16
2022-11-17T04:33:41.771Z,94718.81
2022-11-17T04:36:11.901Z,94709.94
2022-11-17T04:38:43.046Z,94709.97
2022-11-17T04:41:42.616Z,94708.59
2022-11-17T04:44:13.670Z,94705.09
2022-11-17T04:46:44.377Z,94705.91
2022-11-17T04:49:15.354Z,94693.00
2022-11-17T04:51:44.127Z,94694.63
2022-11-17T04:54:15.056Z,94692.19
2022-11-17T04:56:43.972Z,94686.78
2022-11-17T04:59:13.354Z,94683.50
2022-11-17T05:01:41.933Z,94684.31
2022-11-17T05:04:12.504Z,94686.97
2022-11-17T05:06:44.324Z,94693.97
2022-11-17T05:09:15.180Z,94698.53
2022-11-17T05:12:02.143Z,94706.88
2022-11-17T05:14:31.545Z,94713.84
2022-11-17T05:17:11.205Z,94713.03
2022-11-17T05:19:42.648Z,94699.84
2022-11-17T05:22:32.321Z,94697.97
2022-11-17T05:25:00.770Z,94684.19
2022-11-17T05:27:29.804Z,94707.97
2022-11-17T05:29:58.649Z,94710.16
2022-11-17T05:32:27.704Z,94709.56
2022-11-17T05:34:56.298Z,94705.56
2022-11-17T05:37:26.129Z,94701.22
2022-11-17T05:39:54.923Z,94702.31
2022-11-17T05:42:23.775Z,94710.16
2022-11-17T05:44:52.271Z,94709.88
2022-11-17T05:47:21.137Z,94708.22
2022-11-17T05:49:49.559Z,94711.19
2022-11-17T05:52:18.552Z,94713.06
2022-11-17T05:54:48.358Z,94722.75
2022-11-17T05:57:21.592Z,94714.69
2022-11-17T05:59:55.451Z,94715.53
2022-11-17T06:02:27.841Z,94713.91
2022-11-17T06:04:57.018Z,94724.69
2022-11-17T06:07:25.717Z,94731.44
2022-11-17T06:09:56.046Z,94743.03
2022-11-17T06:12:24.500Z,94751.91
2022-11-17T06:14:53.455Z,94756.25
2022-11-17T06:17:25.872Z,94745.19
2022-11-17T06:19:58.330Z,94738.47
2022-11-17T06:22:28.030Z,94763.00
2022-11-17T06:24:59.687Z,94748.50
2022-11-17T06:27:29.655Z,94786.00
2022-11-17T06:30:01.650Z,94776.28
2022-11-17T06:32:30.862Z,94767.34
2022-11-17T06:35:00.849Z,94779.13
2022-11-17T06:37:29.316Z,94784.03
2022-11-17T06:39:59.659Z,94777.25
2022-11-17T06:42:42.484Z,94793.41
2022-11-17T06:45:12.255Z,94796.66
2022-11-17T06:47:41.567Z,94785.31
2022-11-17T06:50:11.697Z,94777.75
2022-11-17T06:52:40.235Z,94785.53
2022-11-17T06:55:11.332Z,94782.50
2022-11-17T06:57:40.851Z,94779.25
2022-11-17T07:00:10.943Z,94774.38
2022-11-17T07:02:39.899Z,94732.47
2022-11-17T07:05:08.923Z,94760.06
2022-11-17T07:07:38.057Z,94751.94
2022-11-17T07:10:07.319Z,94756.03
2022-11-17T07:12:37.886Z,94752.78
2022-11-17T07:15:07.247Z,94733.59
2022-11-17T07:17:35.787Z,94738.00
2022-11-17T07:20:06.009Z,94754.94
2022-11-17T07:22:35.355Z,94738.81
2022-11-17T07:25:04.781Z,94737.94
2022-11-17T07:27:33.316Z,94728.47
2022-11-17T07:30:04.905Z,94763.34
2022-11-17T07:32:33.911Z,94759.66
2022-11-17T07:35:05.879Z,94768.31
2022-11-17T07:37:36.353Z,94768.31
2022-11-17T07:40:05.853Z,94791.22
2022-11-17T07:42:34.355Z,94790.63
2022-11-17T07:45:10.294Z,94764.16
2022-11-17T07:47:40.278Z,94784.94
2022-11-17T07:50:09.389Z,94789.69
2022-11-17T07:52:41.448Z,94790.00
2022-11-17T07:55:11.112Z,94771.91
2022-11-17T07:57:39.604Z,94791.97
2022-11-17T08:00:11.639Z,94794.41
2022-11-17T08:02:42.815Z,94803.56
2022-11-17T08:05:11.795Z,94791.75
2022-11-17T08:07:40.879Z,94802.31
2022-11-17T08:10:10.154Z,94801.81
2022-11-17T08:12:38.850Z,94790.81
2022-11-17T08:15:09.063Z,94775.69
2022-11-17T08:17:39.433Z,94771.38
2022-11-17T08:20:08.901Z,94779.38
2022-11-17T08:22:37.847Z,94774.22
2022-11-17T08:25:07.231Z,94753.94
2022-11-17T08:27:36.628Z,94760.13
2022-11-17T08:30:07.666Z,94770.75
2022-11-17T08:32:37.417Z,94781.59
2022-11-17T08:35:08.238Z,94779.69
2022-11-17T08:37:37.363Z,94782.59
2022-11-17T08:40:07.173Z,94787.38
2022-11-17T08:42:35.659Z,94801.38
2022-11-17T08:45:04.513Z,94810.53
2022-11-17T08:47:33.138Z,94793.50
2022-11-17T08:50:02.118Z,94803.69
2022-11-17T08:52:32.552Z,94798.06
2022-11-17T08:55:02.124Z,94792.66
2022-11-17T08:57:31.665Z,94802.59
2022-11-17T09:00:00.209Z,94812.56
2022-11-17T09:02:29.483Z,94808.28
2022-11-17T09:04:58.011Z,94810.75
2022-11-17T09:07:30.646Z,94806.53
2022-11-17T09:10:06.518Z,94804.41
2022-11-17T09:12:35.024Z,94802.03
2022-11-17T09:15:03.840Z,94810.88
2022-11-17T09:17:32.903Z,94806.63
2022-11-17T09:20:01.630Z,94792.91
2022-11-17T09:22:30.677Z,94793.97
2022-11-17T09:24:59.144Z,94797.81
2022-11-17T09:27:29.896Z,94794.28
2022-11-17T09:29:58.393Z,94791.84
2022-11-17T09:32:27.705Z,94792.16
2022-11-17T09:34:56.293Z,94790.31
2022-11-17T09:37:26.462Z,94780.06
2022-11-17T09:39:55.466Z,94753.63
2022-11-17T09:42:24.182Z,94783.91
2022-11-17T09:44:58.793Z,94781.25
2022-11-17T09:47:35.580Z,94768.28
2022-11-17T09:50:06.763Z,94778.03
2022-11-17T09:52:44.063Z,94767.13
2022-11-17T09:55:29.692Z,94765.25
2022-11-17T09:58:16.595Z,94742.34
2022-11-17T10:00:52.154Z,94737.19
2022-11-17T10:03:23.006Z,94766.63
2022-11-17T10:05:53.235Z,94769.28
2022-11-17T10:08:32.729Z,94772.75
2022-11-17T10:11:21.773Z,94769.41
2022-11-17T10:13:51.668Z,94774.69
2022-11-17T10:16:21.633Z,94768.84
2022-11-17T10:18:50.138Z,94775.13
2022-11-17T10:21:18.606Z,94794.06
2022-11-17T10:23:56.237Z,94787.34
2022-11-17T10:26:25.483Z,94783.53
2022-11-17T10:29:08.921Z,94784.91
2022-11-17T10:31:44.374Z,94759.59
2022-11-17T10:34:26.822Z,94791.69
2022-11-17T10:37:03.213Z,94797.63
2022-11-17T10:39:40.474Z,94792.78
2022-11-17T10:42:23.240Z,94803.06
2022-11-17T10:44:55.730Z,94820.06
2022-11-17T10:47:32.080Z,94818.72
2022-11-17T10:50:15.701Z,94812.75
2022-11-17T10:52:45.153Z,94808.97
2022-11-17T10:55:35.300Z,94803.00
2022-11-17T10:58:19.184Z,94818.13
2022-11-17T11:00:55.295Z,94827.06
2022-11-17T11:03:27.375Z,94791.66
2022-11-17T11:06:02.505Z,94801.88
2022-11-17T11:08:39.799Z,94800.28
2022-11-17T11:11:15.292Z,94773.22
2022-11-17T11:13:50.475Z,94793.47
2022-11-17T11:16:19.101Z,94781.81
2022-11-17T11:18:50.712Z,94778.59
2022-11-17T11:21:35.246Z,94803.16
2022-11-17T11:24:15.562Z,94810.97
2022-11-17T11:26:52.154Z,94800.72
2022-11-17T11:29:31.080Z,94808.03
2022-11-17T11:32:16.556Z,94773.97
2022-11-17T11:35:25.501Z,94786.69
2022-11-17T11:38:04.879Z,94782.88
2022-11-17T11:40:38.370Z,94772.81
2022-11-17T11:43:22.704Z,94787.13
2022-11-17T11:46:01.402Z,94757.66
2022-11-17T11:48:33.825Z,94761.38
2022-11-17T11:51:06.419Z,94763.56
2022-11-17T11:53:47.768Z,94777.09
2022-11-17T11:56:20.884Z,94769.56
2022-11-17T11:58:55.401Z,94764.19
2022-11-17T12:01:25.217Z,94769.56
2022-11-17T12:04:05.457Z,94771.75
2022-11-17T12:06:42.088Z,94772.00
2022-11-17T12:09:42.504Z,94780.13
2022-11-17T12:12:17.434Z,94783.47
2022-11-17T12:15:11.022Z,94782.66
2022-11-17T12:17:54.886Z,94752.16
2022-11-17T12:20:55.763Z,94776.44
2022-11-17T12:23:35.862Z,94755.91
2022-11-17T12:26:06.696Z,94765.59
2022-11-17T12:28:37.301Z,94765.84
2022-11-17T12:31:10.387Z,94764.09
2022-11-17T12:34:26.593Z,94766.72
2022-11-17T12:37:28.463Z,94764.25
2022-11-17T12:40:02.663Z,94758.34
2022-11-17T12:42:34.824Z,94765.97
2022-11-17T12:45:08.469Z,94765.97
2022-11-17T12:47:39.150Z,94754.66
2022-11-17T12:50:46.685Z,94775.03
2022-11-17T12:53:25.873Z,94779.91
2022-11-17T12:56:25.002Z,94771.19
2022-11-17T12:59:02.253Z,94780.94
2022-11-17T13:01:41.027Z,94770.97
2022-11-17T13:04:13.147Z,94773.38
2022-11-17T13:07:00.279Z,94761.03
2022-11-17T13:09:30.610Z,94755.94
2022-11-17T13:12:04.321Z,94769.38
2022-11-17T13:14:36.611Z,94746.22
2022-11-17T13:17:05.083Z,94782.84
2022-11-17T13:19:37.681Z,94778.69
2022-11-17T13:22:14.655Z,94747.56
2022-11-17T13:24:45.956Z,94779.41
2022-11-17T13:27:22.966Z,94773.81
2022-11-17T13:29:53.560Z,94779.44
2022-11-17T13:32:24.828Z,94782.53
2022-11-17T13:34:56.561Z,94789.50
2022-11-17T13:37:27.464Z,94789.78
2022-11-17T13:39:58.485Z,94788.34
2022-11-17T13:42:30.851Z,94789.44
2022-11-17T13:45:04.295Z,94789.22
2022-11-17T13:47:46.409Z,94788.09
2022-11-17T13:50:37.213Z,94787.44
2022-11-17T13:53:25.841Z,94781.84
2022-11-17T13:55:54.681Z,94780.78
2022-11-17T13:58:38.569Z,94782.34
2022-11-17T14:01:13.369Z,94773.00
2022-11-17T14:03:45.098Z,94784.31
2022-11-17T14:06:15.414Z,94774.97
2022-11-17T14:09:02.673Z,94779.69
2022-11-17T14:11:31.824Z,94791.19
2022-11-17T14:14:01.338Z,94775.06
2022-11-17T14:16:38.570Z,94797.78
2022-11-17T14:19:26.927Z,94791.47
2022-11-17T14:22:00.950Z,94796.53
2022-11-17T14:24:30.045Z,94793.97
2022-11-17T14:26:59.267Z,94790.94
2022-11-17T14:29:29.761Z,94782.81
2022-11-17T14:32:00.071Z,94783.41
2022-11-17T14:34:29.005Z,94789.72
2022-11-17T14:36:57.595Z,94779.94
2022-11-17T14:39:26.509Z,94785.16
2022-11-17T14:41:54.983Z,94782.56
2022-11-17T14:44:24.103Z,94776.88
2022-11-17T14:46:52.540Z,94773.84
2022-11-17T14:49:22.894Z,94766.00
2022-11-17T14:51:51.916Z,94779.34
2022-11-17T14:54:20.357Z,94784.44
2022-11-17T14:56:49.357Z,94773.47
2022-11-17T14:59:18.270Z,94770.19
2022-11-17T15:01:47.385Z,94767.06
2022-11-17T15:04:48.169Z,94757.94
2022-11-17T15:07:07.631Z,94774.53
2022-11-17T15:09:36.119Z,94770.81
2022-11-17T15:12:05.558Z,94761.50
2022-11-17T15:14:34.444Z,94763.75
2022-11-17T15:17:03.341Z,94773.00
2022-11-17T15:19:32.158Z,94768.19
2022-11-17T15:22:00.742Z,94773.13
2022-11-17T15:24:30.594Z,94768.56
2022-11-17T15:26:59.780Z,94760.22
2022-11-17T15:29:28.241Z,94769.19
2022-11-17T15:31:57.275Z,94761.63
2022-11-17T15:34:25.807Z,94767.66
2022-11-17T15:36:54.805Z,94758.25
2022-11-17T15:39:23.332Z,94766.97
2022-11-17T15:41:53.655Z,94769.66
2022-11-17T15:44:22.582Z,94771.28
2022-11-17T15:46:51.510Z,94772.31
2022-11-17T15:49:20.029Z,94761.88
2022-11-17T15:51:49.006Z,94768.13
2022-11-17T15:54:20.824Z,94770.38
2022-11-17T15:56:50.836Z,94770.31
2022-11-17T15:59:20.945Z,94768.75
2022-11-17T16:01:49.704Z,94768.25
2022-11-17T16:04:18.625Z,94753.44
2022-11-17T16:06:48.185Z,94763.47
2022-11-17T16:09:17.232Z,94757.47
2022-11-17T16:11:47.033Z,94752.34
2022-11-17T16:14:16.351Z,94753.13
2022-11-17T16:16:47.956Z,94751.53
2022-11-17T16:19:17.953Z,94753.44
2022-11-17T16:21:47.016Z,94751.84
2022-11-17T16:24:15.948Z,94747.78
2022-11-17T16:26:45.585Z,94751.59
2022-11-17T16:29:14.316Z,94762.16
2022-11-17T16:31:43.403Z,94753.78
2022-11-17T16:34:17.877Z,94756.22
2022-11-17T16:36:47.257Z,94750.56
2022-11-17T16:39:19.961Z,94747.59
2022-11-17T16:41:50.228Z,94747.84
2022-11-17T16:44:20.277Z,94751.91
2022-11-17T16:46:51.377Z,94758.66
2022-11-17T16:49:21.344Z,94765.94
2022-11-17T16:51:53.750Z,94759.44
2022-11-17T16:54:22.805Z,94765.41
2022-11-17T16:56:51.359Z,94761.88
2022-11-17T16:59:20.559Z,94746.81
2022-11-17T17:01:49.172Z,94750.06
2022-11-17T17:04:18.394Z,94752.25
2022-11-17T17:06:48.549Z,94746.03
2022-11-17T17:09:19.642Z,94742.25
2022-11-17T17:11:51.752Z,94749.81
2022-11-17T17:14:20.274Z,94744.94
2022-11-17T17:16:48.905Z,94741.16
2022-11-17T17:19:19.152Z,94741.72
2022-11-17T17:21:49.300Z,94738.75
2022-11-17T17:24:18.209Z,94737.94
2022-11-17T17:26:47.374Z,94731.47
2022-11-17T17:29:15.984Z,94730.66
2022-11-17T17:31:44.892Z,94741.72
2022-11-17T17:34:15.396Z,94738.22
2022-11-17T17:36:44.368Z,94731.72
2022-11-17T17:39:16.540Z,94732.28
2022-11-17T17:41:46.118Z,94724.19
2022-11-17T17:44:16.772Z,94699.94
2022-11-17T17:46:46.053Z,94738.00
2022-11-17T17:49:16.451Z,94739.88
2022-11-17T17:51:45.880Z,94744.22
2022-11-17T17:54:18.507Z,94748.00
2022-11-17T17:56:47.827Z,94750.69
2022-11-17T17:59:17.217Z,94749.09
2022-11-17T18:01:47.818Z,94753.41
2022-11-17T18:04:17.579Z,94724.78
2022-11-17T18:06:48.687Z,94753.38
2022-11-17T18:09:20.979Z,94748.81
2022-11-17T18:11:51.395Z,94741.25
2022-11-17T18:14:24.279Z,94717.22
2022-11-17T18:16:54.144Z,94739.91
2022-11-17T18:19:27.076Z,94707.78
2022-11-17T18:21:59.928Z,94726.94
2022-11-17T18:24:29.858Z,94728.28
2022-11-17T18:26:58.305Z,94730.72
2022-11-17T18:29:27.704Z,94726.41
2022-11-17T18:31:56.214Z,94723.44
2022-11-17T18:34:26.478Z,94729.09
2022-11-17T18:36:56.525Z,94729.63
2022-11-17T18:39:27.403Z,94733.44
2022-11-17T18:41:57.880Z,94737.47
2022-11-17T18:44:26.439Z,94734.50
2022-11-17T18:47:01.206Z,94742.31
2022-11-17T18:49:31.531Z,94734.22
2022-11-17T18:52:00.409Z,94733.16
2022-11-17T18:54:28.925Z,94719.38
2022-11-17T18:57:00.533Z,94723.16
2022-11-17T18:59:29.351Z,94724.50
2022-11-17T19:01:57.798Z,94719.09
2022-11-17T19:04:26.283Z,94708.31
2022-11-17T19:06:54.818Z,94727.19
2022-11-17T19:09:23.373Z,94728.84
2022-11-17T19:11:52.785Z,94718.84
2022-11-17T19:14:23.719Z,94727.19
2022-11-17T19:16:52.176Z,94722.59
2022-11-17T19:19:21.513Z,94718.81
2022-11-17T19:21:50.074Z,94713.13
2022-11-17T19:24:18.599Z,94716.66
2022-11-17T19:26:47.487Z,94713.13
2022-11-17T19:29:17.448Z,94713.13
2022-11-17T19:31:48.459Z,94718.28
2022-11-17T19:34:17.373Z,94719.09
2022-11-17T19:36:46.602Z,94715.31
2022-11-17T19:39:17.027Z,94713.97
2022-11-17T19:41:47.662Z,94705.63
2022-11-17T19:44:16.822Z,94705.63
2022-11-17T19:46:48.415Z,94705.88
2022-11-17T19:49:17.186Z,94711.81
2022-11-17T19:51:46.262Z,94718.84
2022-11-17T19:54:15.629Z,94711.78
2022-11-17T19:56:45.292Z,94721.00
2022-11-17T19:59:16.471Z,94719.34
2022-11-17T20:01:47.534Z,94721.50
2022-11-17T20:04:16.478Z,94722.84
2022-11-17T20:06:44.955Z,94734.22
2022-11-17T20:09:15.379Z,94695.88
2022-11-17T20:11:44.182Z,94720.19
2022-11-17T20:14:14.398Z,94736.38
2022-11-17T20:16:43.207Z,94717.75
2022-11-17T20:19:14.221Z,94739.34
2022-11-17T20:21:43.275Z,94746.91
2022-11-17T20:24:12.743Z,94736.09
2022-11-17T20:26:43.024Z,94738.28
2022-11-17T20:29:11.551Z,94737.72
2022-11-17T20:31:40.607Z,94740.16
2022-11-17T20:34:13.828Z,94743.38
2022-11-17T20:36:42.661Z,94730.16
2022-11-17T20:39:11.217Z,94726.91
2022-11-17T20:41:40.587Z,94729.09
2022-11-17T20:44:23.769Z,94728.53
2022-11-17T20:46:54.303Z,94715.31
2022-11-17T20:49:24.827Z,94708.03
2022-11-17T20:51:53.353Z,94728.56
2022-11-17T20:54:21.853Z,94734.75
2022-11-17T20:56:50.327Z,94729.09
2022-11-17T20:59:20.349Z,94728.25
2022-11-17T21:01:50.480Z,94730.41
2022-11-17T21:04:19.430Z,94724.22
2022-11-17T21:06:49.235Z,94734.47
2022-11-17T21:09:18.664Z,94729.63
2022-11-17T21:11:59.854Z,94738.00
2022-11-17T21:14:29.255Z,94736.38
2022-11-17T21:17:00.972Z,94736.91
2022-11-17T21:19:31.641Z,94733.69
2022-11-17T21:22:03.193Z,94747.47
2022-11-17T21:24:31.636Z,94743.94
2022-11-17T21:27:00.412Z,94736.09
2022-11-17T21:29:29.374Z,94737.19
2022-11-17T21:31:58.089Z,94725.03
2022-11-17T21:34:26.522Z,94738.81
2022-11-17T21:36:55.428Z,94748.53
2022-11-17T21:39:25.284Z,94749.06
2022-11-17T21:41:53.730Z,94746.38
2022-11-17T21:44:22.453Z,94742.06
2022-11-17T21:46:51.361Z,94748.81
2022-11-17T21:49:19.928Z,94748.81
2022-11-17T21:51:48.881Z,94753.38
2022-11-17T21:54:17.580Z,94754.19
2022-11-17T21:56:47.998Z,94761.75
2022-11-17T21:59:18.035Z,94753.63
2022-11-17T22:01:46.816Z,94744.47
2022-11-17T22:04:16.642Z,94755.56
2022-11-17T22:06:45.177Z,94761.50
2022-11-17T22:09:14.698Z,94769.06
2022-11-17T22:11:43.445Z,94763.94
2022-11-17T22:14:15.243Z,94765.03
2022-11-17T22:16:45.455Z,94764.22
2022-11-17T22:19:15.783Z,94767.44
2022-11-17T22:21:45.464Z,94772.56
2022-11-17T22:24:15.234Z,94772.31
2022-11-17T22:26:44.928Z,94791.72
2022-11-17T22:29:17.106Z,94793.91
2022-11-17T22:31:46.298Z,94775.53
2022-11-17T22:34:15.453Z,94799.03
2022-11-17T22:36:44.725Z,94802.00
2022-11-17T22:39:13.531Z,94789.81
2022-11-17T22:41:43.155Z,94807.94
2022-11-17T22:44:15.727Z,94813.91
2022-11-17T22:46:45.681Z,94831.16
2022-11-17T22:49:14.631Z,94821.47
2022-11-17T22:52:00.720Z,94818.19
2022-11-17T22:54:29.202Z,94826.84
2022-11-17T22:56:59.040Z,94818.72
2022-11-17T22:59:30.302Z,94824.41
2022-11-17T23:01:59.638Z,94821.72
2022-11-17T23:04:28.912Z,94819.28
2022-11-17T23:06:57.834Z,94818.19
2022-11-17T23:09:26.381Z,94811.72
2022-11-17T23:11:55.685Z,94815.75
2022-11-17T23:14:24.106Z,94823.59
2022-11-17T23:16:54.920Z,94813.31
2022-11-17T23:19:24.132Z,94803.06
2022-11-17T23:21:53.254Z,94813.88
2022-11-17T23:24:21.886Z,94809.00
2022-11-17T23:26:50.923Z,94805.78
2022-11-17T23:29:20.414Z,94804.44
2022-11-17T23:31:49.227Z,94804.72
2022-11-17T23:34:20.123Z,94792.56
2022-11-17T23:36:48.565Z,94779.59
2022-11-17T23:39:18.403Z,94768.25
2022-11-17T23:41:47.627Z,94771.75
2022-11-17T23:44:16.945Z,94759.88
2022-11-17T23:46:46.648Z,94768.78
2022-11-17T23:49:16.026Z,94766.09
2022-11-17T23:51:46.203Z,94770.41
2022-11-17T23:54:15.307Z,94773.63
2022-11-17T23:56:43.804Z,94780.94
2022-11-17T23:59:12.906Z,94780.66
